createdAt,value
2023-05-13T00:02:38.096Z,8.37
2023-05-13T00:05:41.027Z,10.07
2023-05-13T00:08:43.736Z,6.73
2023-05-13T00:11:47.974Z,13.43
2023-05-13T00:14:50.696Z,13.63
2023-05-13T00:17:53.518Z,18.93
2023-05-13T00:20:57.012Z,18.90
2023-05-13T00:23:59.679Z,14.80
2023-05-13T00:27:03.681Z,14.80
2023-05-13T00:30:08.240Z,16.03
2023-05-13T00:33:11.007Z,28.73
2023-05-13T00:36:14.413Z,18.70
2023-05-13T00:39:17.061Z,14.23
2023-05-13T00:42:21.091Z,15.10
2023-05-13T00:45:23.738Z,26.60
2023-05-13T00:48:26.824Z,20.47
2023-05-13T00:51:29.645Z,24.43
2023-05-13T00:54:32.430Z,35.13
2023-05-13T00:57:36.879Z,17.03
2023-05-13T01:00:53.436Z,30.10
2023-05-13T01:04:05.042Z,49.97
2023-05-13T01:07:14.656Z,19.20
2023-05-13T01:10:24.915Z,17.33
2023-05-13T01:13:32.940Z,22.27
2023-05-13T01:16:47.328Z,14.13
2023-05-13T01:19:55.508Z,14.83
2023-05-13T01:22:59.621Z,19.80
2023-05-13T01:26:02.428Z,27.53
2023-05-13T01:29:05.123Z,26.03
2023-05-13T01:32:09.657Z,23.23
2023-05-13T01:35:13.337Z,20.33
2023-05-13T01:38:17.984Z,12.63
2023-05-13T01:41:20.841Z,17.00
2023-05-13T01:44:23.498Z,12.23
2023-05-13T01:47:26.285Z,8.17
2023-05-13T01:50:29.013Z,8.47
2023-05-13T01:53:33.093Z,9.17
2023-05-13T01:56:36.300Z,9.23
2023-05-13T01:59:39.122Z,11.87
2023-05-13T02:02:41.951Z,12.47
2023-05-13T02:05:44.820Z,11.90
2023-05-13T02:08:48.866Z,15.43
2023-05-13T02:11:51.994Z,14.53
2023-05-13T02:14:56.906Z,16.93
2023-05-13T02:17:59.685Z,13.80
2023-05-13T02:21:02.373Z,13.60
2023-05-13T02:24:07.416Z,14.20
2023-05-13T02:27:12.599Z,16.00
2023-05-13T02:30:15.491Z,25.67
2023-05-13T02:33:18.150Z,23.67
2023-05-13T02:36:20.864Z,33.07
2023-05-13T02:39:24.884Z,25.70
2023-05-13T02:42:27.594Z,26.27
2023-05-13T02:45:30.259Z,16.50
2023-05-13T02:48:32.906Z,33.93
2023-05-13T02:51:37.743Z,32.00
2023-05-13T02:54:41.790Z,42.50
2023-05-13T02:57:44.710Z,56.13
2023-05-13T03:00:47.345Z,49.30
2023-05-13T03:03:50.493Z,28.63
2023-05-13T03:06:53.427Z,17.33
2023-05-13T03:09:57.789Z,36.33
2023-05-13T03:13:00.441Z,13.97
2023-05-13T03:16:03.685Z,23.10
2023-05-13T03:19:06.401Z,25.37
2023-05-13T03:22:09.078Z,11.97
2023-05-13T03:25:15.600Z,7.87
2023-05-13T03:28:18.298Z,7.07
2023-05-13T03:31:21.017Z,8.23
2023-05-13T03:34:23.727Z,7.77
2023-05-13T03:37:26.509Z,7.93
2023-05-13T03:40:30.622Z,10.63
2023-05-13T03:43:33.920Z,6.23
2023-05-13T03:46:36.703Z,15.03
2023-05-13T03:49:39.416Z,26.43
2023-05-13T03:52:42.495Z,7.27
2023-05-13T03:55:48.151Z,17.90
2023-05-13T03:58:50.798Z,17.73
2023-05-13T04:01:53.468Z,13.13
2023-05-13T04:04:56.463Z,17.77
2023-05-13T04:07:59.194Z,13.33
2023-05-13T04:11:06.270Z,16.13
2023-05-13T04:14:08.912Z,12.47
2023-05-13T04:17:11.677Z,13.90
2023-05-13T04:20:14.514Z,11.10
2023-05-13T04:23:17.315Z,9.90
2023-05-13T04:26:27.470Z,10.67
2023-05-13T04:29:30.181Z,23.93
2023-05-13T04:32:33.108Z,10.50
2023-05-13T04:35:35.825Z,11.37
2023-05-13T04:38:38.541Z,8.73
2023-05-13T04:41:42.785Z,12.17
2023-05-13T04:44:45.717Z,16.27
2023-05-13T04:47:48.433Z,15.33
2023-05-13T04:50:52.399Z,12.67
2023-05-13T04:53:55.513Z,19.00
2023-05-13T04:56:59.542Z,16.93
2023-05-13T05:00:02.547Z,9.37
2023-05-13T05:03:05.733Z,13.40
2023-05-13T05:06:08.634Z,9.07
2023-05-13T05:09:11.436Z,9.17
2023-05-13T05:12:15.656Z,12.77
2023-05-13T05:15:18.344Z,15.07
2023-05-13T05:18:21.063Z,58.87
2023-05-13T05:21:24.291Z,54.33
2023-05-13T05:24:27.049Z,38.23
2023-05-13T05:27:31.116Z,54.57
2023-05-13T05:30:39.414Z,52.30
2023-05-13T05:33:42.687Z,44.07
2023-05-13T05:36:45.380Z,28.27
2023-05-13T05:39:48.383Z,35.67
2023-05-13T05:42:52.474Z,23.43
2023-05-13T05:45:55.287Z,40.83
2023-05-13T05:48:58.085Z,32.17
2023-05-13T05:52:00.729Z,6.40
2023-05-13T05:55:04.126Z,15.47
2023-05-13T05:58:10.930Z,11.03
2023-05-13T06:01:13.967Z,25.13
2023-05-13T06:04:17.508Z,5.10
2023-05-13T06:07:20.277Z,5.27
2023-05-13T06:10:23.227Z,6.20
2023-05-13T06:13:27.480Z,9.87
2023-05-13T06:16:30.334Z,6.40
2023-05-13T06:19:37.546Z,5.20
2023-05-13T06:22:40.930Z,6.30
2023-05-13T06:25:43.631Z,3.87
2023-05-13T06:28:50.685Z,5.17
2023-05-13T06:31:53.515Z,5.80
2023-05-13T06:34:56.192Z,5.17
2023-05-13T06:37:58.837Z,5.30
2023-05-13T06:41:01.508Z,7.03
2023-05-13T06:44:07.413Z,4.60
2023-05-13T06:47:14.638Z,7.00
2023-05-13T06:50:17.766Z,6.20
2023-05-13T06:53:20.440Z,12.57
2023-05-13T06:56:23.937Z,7.27
2023-05-13T06:59:28.134Z,5.00
2023-05-13T07:02:31.014Z,9.07
2023-05-13T07:05:34.037Z,4.70
2023-05-13T07:08:36.814Z,5.03
2023-05-13T07:11:39.994Z,4.83
2023-05-13T07:14:45.253Z,4.83
2023-05-13T07:17:48.128Z,6.07
2023-05-13T07:20:53.264Z,6.10
2023-05-13T07:23:55.950Z,3.23
2023-05-13T07:26:58.676Z,2.60
2023-05-13T07:30:02.796Z,7.00
2023-05-13T07:33:05.905Z,3.30
2023-05-13T07:36:08.792Z,3.20
2023-05-13T07:39:12.049Z,3.20
2023-05-13T07:42:15.321Z,3.33
2023-05-13T07:45:19.484Z,2.97
2023-05-13T07:48:24.520Z,3.00
2023-05-13T07:51:27.294Z,3.97
2023-05-13T07:54:29.995Z,7.43
2023-05-13T07:57:32.906Z,2.87
2023-05-13T08:00:37.821Z,5.83
2023-05-13T08:03:41.272Z,4.73
2023-05-13T08:06:44.086Z,4.80
2023-05-13T08:09:46.872Z,5.30
2023-05-13T08:12:53.550Z,2.87
2023-05-13T08:15:57.683Z,4.47
2023-05-13T08:19:01.604Z,4.47
2023-05-13T08:22:06.833Z,5.37
2023-05-13T08:25:11.216Z,3.10
2023-05-13T08:28:14.071Z,4.03
2023-05-13T08:31:18.197Z,2.97
2023-05-13T08:34:21.049Z,3.13
2023-05-13T08:37:23.960Z,4.67
2023-05-13T08:40:26.787Z,5.73
2023-05-13T08:43:31.137Z,3.63
2023-05-13T08:46:38.123Z,3.80
2023-05-13T08:49:41.282Z,5.10
2023-05-13T08:52:44.934Z,6.40
2023-05-13T08:55:49.619Z,2.83
2023-05-13T08:58:52.363Z,2.80
2023-05-13T09:01:56.861Z,8.00
2023-05-13T09:05:03.843Z,4.27
2023-05-13T09:08:10.126Z,7.53
2023-05-13T09:11:13.066Z,3.63
2023-05-13T09:14:20.141Z,3.57
2023-05-13T09:17:24.226Z,5.40
2023-05-13T09:20:27.136Z,3.00
2023-05-13T09:23:30.353Z,3.00
2023-05-13T09:26:34.111Z,2.63
2023-05-13T09:29:37.736Z,6.57
2023-05-13T09:32:43.225Z,3.90
2023-05-13T09:35:53.823Z,5.83
2023-05-13T09:38:56.623Z,12.60
2023-05-13T09:41:59.451Z,4.13
2023-05-13T09:45:07.284Z,3.17
2023-05-13T09:48:11.501Z,3.53
2023-05-13T09:51:16.410Z,3.83
2023-05-13T09:54:19.268Z,4.50
2023-05-13T09:57:22.138Z,3.40
2023-05-13T10:00:32.175Z,3.57
2023-05-13T10:03:37.356Z,4.07
2023-05-13T10:06:40.434Z,3.83
2023-05-13T10:09:44.665Z,3.40
2023-05-13T10:12:48.600Z,3.73
2023-05-13T10:15:52.955Z,5.50
2023-05-13T10:18:58.044Z,3.40
2023-05-13T10:22:01.537Z,5.03
2023-05-13T10:25:05.114Z,2.40
2023-05-13T10:28:07.818Z,4.73
2023-05-13T10:31:10.505Z,6.00
2023-05-13T10:34:14.634Z,7.63
2023-05-13T10:37:46.786Z,5.03
2023-05-13T10:41:13.076Z,8.87
2023-05-13T10:44:15.966Z,4.43
2023-05-13T10:47:18.676Z,3.03
2023-05-13T10:50:27.099Z,3.30
2023-05-13T10:53:32.132Z,5.20
2023-05-13T10:56:34.889Z,4.73
2023-05-13T10:59:38.843Z,3.43
2023-05-13T11:02:41.757Z,4.93
2023-05-13T11:05:48.148Z,5.83
2023-05-13T11:08:55.753Z,5.57
2023-05-13T11:12:00.424Z,6.27
2023-05-13T11:15:03.186Z,8.60
2023-05-13T11:18:07.256Z,4.70
2023-05-13T11:21:11.576Z,8.17
2023-05-13T11:24:19.488Z,6.37
2023-05-13T11:27:22.398Z,4.57
2023-05-13T11:30:27.230Z,5.63
2023-05-13T11:34:10.557Z,7.07
2023-05-13T11:37:15.210Z,5.83
2023-05-13T11:40:23.540Z,4.73
2023-05-13T11:43:27.568Z,3.70
2023-05-13T11:46:30.459Z,7.50
2023-05-13T11:49:34.733Z,4.50
2023-05-13T11:52:39.243Z,3.83
2023-05-13T11:55:41.910Z,6.63
2023-05-13T11:58:44.724Z,4.60
2023-05-13T12:01:47.611Z,3.80
2023-05-13T12:04:51.688Z,4.93
2023-05-13T12:07:59.027Z,4.73
2023-05-13T12:11:01.979Z,6.27
2023-05-13T12:14:05.177Z,4.87
2023-05-13T12:17:07.987Z,6.63
2023-05-13T12:20:12.973Z,3.80
2023-05-13T12:23:17.116Z,3.63
2023-05-13T12:26:20.275Z,4.83
2023-05-13T12:29:22.937Z,3.13
2023-05-13T12:32:25.900Z,5.77
2023-05-13T12:35:28.753Z,4.17
2023-05-13T12:38:33.517Z,2.93
2023-05-13T12:41:37.270Z,5.57
2023-05-13T12:44:40.178Z,7.87
2023-05-13T12:47:49.856Z,5.43
2023-05-13T12:50:52.859Z,2.40
2023-05-13T12:53:58.329Z,4.13
2023-05-13T12:57:01.048Z,2.23
2023-05-13T13:00:04.841Z,3.67
2023-05-13T13:03:08.004Z,2.27
2023-05-13T13:06:11.878Z,5.57
2023-05-13T13:09:16.603Z,3.70
2023-05-13T13:12:19.354Z,8.10
2023-05-13T13:15:22.502Z,7.33
2023-05-13T13:18:25.750Z,4.33
2023-05-13T13:21:28.782Z,3.83
2023-05-13T13:24:32.838Z,2.77
2023-05-13T13:27:35.829Z,5.67
2023-05-13T13:30:39.342Z,3.10
2023-05-13T13:33:42.022Z,7.17
2023-05-13T13:36:45.172Z,5.33
2023-05-13T13:39:49.389Z,2.67
2023-05-13T13:42:52.143Z,6.33
2023-05-13T13:45:54.881Z,2.13
2023-05-13T13:48:57.592Z,6.73
2023-05-13T13:52:00.531Z,4.27
2023-05-13T13:55:05.243Z,5.17
2023-05-13T13:58:08.052Z,2.97
2023-05-13T14:01:10.889Z,2.97
2023-05-13T14:04:16.583Z,4.40
2023-05-13T14:07:19.262Z,2.60
2023-05-13T14:10:23.678Z,3.33
2023-05-13T14:13:26.542Z,4.30
2023-05-13T14:16:29.389Z,5.17
2023-05-13T14:19:32.324Z,5.27
2023-05-13T14:22:35.016Z,4.53
2023-05-13T14:25:39.246Z,5.13
2023-05-13T14:28:42.146Z,6.63
2023-05-13T14:31:44.851Z,4.23
2023-05-13T14:34:47.539Z,3.67
2023-05-13T14:37:50.275Z,4.57
2023-05-13T14:40:55.666Z,5.13
2023-05-13T14:43:58.355Z,5.30
2023-05-13T14:47:01.219Z,6.23
2023-05-13T14:50:04.409Z,3.53
2023-05-13T14:53:07.229Z,2.97
2023-05-13T14:56:11.381Z,4.70
2023-05-13T14:59:14.141Z,7.50
2023-05-13T15:02:17.429Z,5.77
2023-05-13T15:05:20.339Z,5.90
2023-05-13T15:08:23.322Z,5.03
2023-05-13T15:11:28.856Z,6.00
2023-05-13T15:14:31.558Z,3.33
2023-05-13T15:17:34.488Z,4.50
2023-05-13T15:20:37.212Z,3.60
2023-05-13T15:23:39.947Z,3.07
2023-05-13T15:26:44.127Z,2.20
2023-05-13T15:29:46.891Z,3.27
2023-05-13T15:32:49.737Z,4.03
2023-05-13T15:35:52.727Z,5.03
2023-05-13T15:38:55.479Z,6.03
2023-05-13T15:41:59.604Z,3.40
2023-05-13T15:45:02.642Z,6.50
2023-05-13T15:48:06.070Z,4.03
2023-05-13T15:51:09.073Z,3.20
2023-05-13T15:54:11.919Z,5.67
2023-05-13T15:57:18.147Z,7.07
2023-05-13T16:00:21.453Z,5.20
2023-05-13T16:03:24.485Z,4.00
2023-05-13T16:06:27.224Z,3.30
2023-05-13T16:09:29.872Z,3.80
2023-05-13T16:12:34.201Z,4.93
2023-05-13T16:15:37.036Z,4.43
2023-05-13T16:18:40.482Z,8.83
2023-05-13T16:21:43.232Z,6.77
2023-05-13T16:24:45.906Z,4.20
2023-05-13T16:27:49.917Z,10.70
2023-05-13T16:30:56.231Z,4.23
2023-05-13T16:34:04.084Z,10.37
2023-05-13T16:37:06.758Z,5.03
2023-05-13T16:40:11.554Z,7.70
2023-05-13T16:43:15.691Z,8.93
2023-05-13T16:46:18.333Z,4.73
2023-05-13T16:49:22.998Z,6.87
2023-05-13T16:52:26.333Z,4.93
2023-05-13T16:55:29.173Z,6.23
2023-05-13T16:58:33.160Z,4.50
2023-05-13T17:01:35.961Z,5.20
2023-05-13T17:04:38.697Z,4.57
2023-05-13T17:07:41.571Z,4.90
2023-05-13T17:10:44.341Z,5.00
2023-05-13T17:13:48.374Z,2.93
2023-05-13T17:16:52.268Z,5.03
2023-05-13T17:19:55.795Z,4.93
2023-05-13T17:23:04.509Z,4.17
2023-05-13T17:26:07.945Z,2.57
2023-05-13T17:29:13.694Z,5.80
2023-05-13T17:32:16.914Z,5.33
2023-05-13T17:35:20.306Z,3.60
2023-05-13T17:38:23.845Z,8.50
2023-05-13T17:41:27.573Z,7.23
2023-05-13T17:44:32.373Z,20.37
2023-05-13T17:47:35.569Z,8.00
2023-05-13T17:50:38.629Z,17.20
2023-05-13T17:53:41.300Z,5.63
2023-05-13T17:56:44.058Z,14.10
2023-05-13T17:59:48.123Z,3.33
2023-05-13T18:02:50.992Z,3.93
2023-05-13T18:05:53.943Z,5.03
2023-05-13T18:08:56.667Z,3.30
2023-05-13T18:11:59.334Z,6.40
2023-05-13T18:15:03.524Z,6.30
2023-05-13T18:18:06.600Z,4.57
2023-05-13T18:21:10.601Z,3.53
2023-05-13T18:24:13.369Z,8.83
2023-05-13T18:27:16.181Z,5.50
2023-05-13T18:30:20.787Z,4.57
2023-05-13T18:33:23.665Z,3.80
2023-05-13T18:36:26.556Z,7.70
2023-05-13T18:39:29.382Z,3.20
2023-05-13T18:42:32.612Z,6.67
2023-05-13T18:45:36.727Z,5.97
2023-05-13T18:48:39.558Z,3.00
2023-05-13T18:51:42.407Z,7.10
2023-05-13T18:54:45.074Z,4.80
2023-05-13T18:57:47.808Z,5.83
2023-05-13T19:00:52.508Z,4.07
2023-05-13T19:03:55.666Z,4.43
2023-05-13T19:06:58.466Z,5.17
2023-05-13T19:10:01.924Z,4.13
2023-05-13T19:13:06.714Z,7.00
2023-05-13T19:16:10.810Z,5.50
2023-05-13T19:19:13.553Z,4.60
2023-05-13T19:22:16.269Z,5.40
2023-05-13T19:25:19.177Z,4.73
2023-05-13T19:28:21.865Z,5.73
2023-05-13T19:31:26.988Z,5.90
2023-05-13T19:34:29.659Z,5.77
2023-05-13T19:37:32.306Z,6.13
2023-05-13T19:40:35.013Z,8.37
2023-05-13T19:43:37.733Z,8.23
2023-05-13T19:46:41.896Z,8.47
2023-05-13T19:49:44.599Z,8.33
2023-05-13T19:52:47.290Z,8.13
2023-05-13T19:55:50.044Z,9.53
2023-05-13T19:58:53.266Z,9.07
2023-05-13T20:01:57.702Z,13.10
2023-05-13T20:05:00.501Z,9.80
2023-05-13T20:08:03.324Z,7.53
2023-05-13T20:11:06.625Z,9.93
2023-05-13T20:14:12.365Z,6.73
2023-05-13T20:17:19.019Z,8.17
2023-05-13T20:20:22.224Z,7.53
2023-05-13T20:23:25.095Z,8.47
2023-05-13T20:26:27.881Z,7.47
2023-05-13T20:29:34.891Z,12.53
2023-05-13T20:32:39.035Z,8.00
2023-05-13T20:35:42.661Z,8.03
2023-05-13T20:38:45.325Z,8.20
2023-05-13T20:41:47.993Z,6.97
2023-05-13T20:44:50.750Z,8.67
2023-05-13T20:47:59.132Z,10.67
2023-05-13T20:51:04.706Z,10.37
2023-05-13T20:54:10.976Z,11.70
2023-05-13T20:57:13.634Z,13.80
2023-05-13T21:00:16.803Z,11.63
2023-05-13T21:03:21.160Z,8.57
2023-05-13T21:06:24.255Z,8.83
2023-05-13T21:09:26.988Z,9.53
2023-05-13T21:12:29.983Z,9.07
2023-05-13T21:15:32.760Z,7.57
2023-05-13T21:18:37.050Z,7.57
2023-05-13T21:21:39.837Z,11.87
2023-05-13T21:24:42.710Z,5.83
2023-05-13T21:27:45.948Z,7.00
2023-05-13T21:30:48.671Z,10.77
2023-05-13T21:33:52.712Z,8.00
2023-05-13T21:36:55.419Z,6.80
2023-05-13T21:39:58.208Z,12.50
2023-05-13T21:43:00.926Z,6.27
2023-05-13T21:46:03.689Z,10.33
2023-05-13T21:49:07.739Z,8.60
2023-05-13T21:52:10.655Z,7.07
2023-05-13T21:55:13.431Z,8.13
2023-05-13T21:58:18.393Z,7.57
2023-05-13T22:01:24.327Z,7.93
2023-05-13T22:04:28.591Z,10.80
2023-05-13T22:07:31.326Z,6.90
2023-05-13T22:10:34.010Z,5.47
2023-05-13T22:13:36.682Z,7.87
2023-05-13T22:16:41.602Z,6.50
2023-05-13T22:19:45.869Z,7.27
2023-05-13T22:22:48.748Z,12.27
2023-05-13T22:25:51.552Z,8.53
2023-05-13T22:28:54.371Z,8.20
2023-05-13T22:31:57.789Z,6.80
2023-05-13T22:35:01.973Z,8.00
2023-05-13T22:38:04.998Z,7.80
2023-05-13T22:41:07.688Z,6.77
2023-05-13T22:44:10.504Z,8.10
2023-05-13T22:47:13.137Z,7.47
2023-05-13T22:50:17.139Z,6.97
2023-05-13T22:53:19.828Z,7.27
2023-05-13T22:56:22.705Z,7.90
2023-05-13T22:59:26.725Z,8.10
2023-05-13T23:02:29.544Z,8.73
2023-05-13T23:05:33.749Z,8.77
2023-05-13T23:08:36.435Z,9.63
2023-05-13T23:11:39.343Z,9.00
2023-05-13T23:14:41.986Z,7.40
2023-05-13T23:17:44.761Z,7.83
2023-05-13T23:20:51.947Z,9.67
2023-05-13T23:23:54.670Z,13.20
2023-05-13T23:26:57.413Z,7.97
2023-05-13T23:30:00.275Z,9.17
2023-05-13T23:33:03.402Z,10.33
2023-05-13T23:36:08.080Z,8.97
2023-05-13T23:39:10.816Z,11.73
2023-05-13T23:42:13.523Z,8.50
2023-05-13T23:45:16.456Z,14.10
2023-05-13T23:48:19.173Z,8.90
2023-05-13T23:51:23.200Z,11.40
2023-05-13T23:54:25.917Z,13.77
2023-05-13T23:57:28.755Z,10.17
